Time;durP1;ratioP1;P1;durP2;ratioP2;P2;SDS_P1;SDS_P2;PMS_P1;PMS_P2;Temp;Humidity;BMP_temperature;BMP_pressure;BME280_temperature;BME280_humidity;BME280_pressure;Samples;Min_cycle;Max_cycle;Signal;HPM_P1;HPM_P2
2024/01/07 00:01:37;;;;;;;0.20;0.10;;;;;;;;;;5002011;28;20080;-87
2024/01/07 00:04:05;;;;;;;0.20;0.10;;;;;;;;;;5017760;28;20132;-84
2024/01/07 00:06:33;;;;;;;0.20;0.10;;;;;;;;;;5007564;28;20037;-86
2024/01/07 00:09:01;;;;;;;0.20;0.10;;;;;;;;;;5020305;28;20025;-85
2024/01/07 00:11:27;;;;;;;0.20;0.00;;;;;;;;;;5007798;28;20053;-86
2024/01/07 00:13:56;;;;;;;0.20;0.10;;;;;;;;;;5008689;28;20128;-84
2024/01/07 00:16:22;;;;;;;0.20;0.10;;;;;;;;;;5007247;28;20038;-89
2024/01/07 00:18:48;;;;;;;0.20;0.10;;;;;;;;;;5021866;28;20132;-86
2024/01/07 00:21:20;;;;;;;0.20;0.10;;;;;;;;;;5020346;28;20057;-86
2024/01/07 00:24:25;;;;;;;0.20;0.10;;;;;;;;;;5016779;28;20046;-86
2024/01/07 00:27:08;;;;;;;0.20;0.05;;;;;;;;;;5022357;28;20049;-89
2024/01/07 00:29:37;;;;;;;0.20;0.10;;;;;;;;;;5017556;28;20577;-88
2024/01/07 00:32:23;;;;;;;0.20;0.05;;;;;;;;;;5022511;28;20033;-85
2024/01/07 00:34:52;;;;;;;0.20;0.00;;;;;;;;;;5005533;28;20096;-85
2024/01/07 00:37:28;;;;;;;0.20;0.10;;;;;;;;;;5024816;28;20033;-84
2024/01/07 00:39:57;;;;;;;0.20;0.10;;;;;;;;;;5006663;28;20053;-86
2024/01/07 00:42:23;;;;;;;0.20;0.10;;;;;;;;;;5001797;28;20057;-87
2024/01/07 00:45:02;;;;;;;0.20;0.10;;;;;;;;;;5001741;28;20038;-85
2024/01/07 00:47:31;;;;;;;0.20;0.00;;;;;;;;;;4996801;28;20040;-89
2024/01/07 00:50:09;;;;;;;0.20;0.00;;;;;;;;;;5004008;28;20050;-84
2024/01/07 00:52:36;;;;;;;1.55;0.38;;;;;;;;;;5019108;28;20091;-88
2024/01/07 00:55:12;;;;;;;0.20;0.10;;;;;;;;;;5021931;28;20201;-88
2024/01/07 00:57:40;;;;;;;0.20;0.10;;;;;;;;;;5024535;28;20053;-85
2024/01/07 01:00:07;;;;;;;0.20;0.10;;;;;;;;;;5022273;28;20042;-88
2024/01/07 01:02:48;;;;;;;0.20;0.10;;;;;;;;;;5029968;28;20125;-85
2024/01/07 01:07:41;;;;;;;0.20;0.10;;;;;;;;;;4965951;23;20055;-84
2024/01/07 01:10:08;;;;;;;0.20;0.10;;;;;;;;;;4928293;28;20055;-86
2024/01/07 01:12:34;;;;;;;0.20;0.10;;;;;;;;;;4922236;28;20135;-85
2024/01/07 01:15:02;;;;;;;0.20;0.10;;;;;;;;;;4916098;28;20061;-87
2024/01/07 01:17:28;;;;;;;0.20;0.10;;;;;;;;;;5006364;28;20069;-87
2024/01/07 01:19:57;;;;;;;0.30;0.30;;;;;;;;;;5008159;28;20128;-85
2024/01/07 01:22:44;;;;;;;0.20;0.00;;;;;;;;;;5023408;28;20029;-87
2024/01/07 01:25:16;;;;;;;0.20;0.10;;;;;;;;;;5021631;28;20072;-86
2024/01/07 01:28:01;;;;;;;0.20;0.10;;;;;;;;;;5036854;28;20063;-85
2024/01/07 01:30:30;;;;;;;0.20;0.08;;;;;;;;;;5021100;28;20048;-86
2024/01/07 01:32:58;;;;;;;0.20;0.10;;;;;;;;;;5008444;28;20037;-86
2024/01/07 01:35:28;;;;;;;0.20;0.00;;;;;;;;;;5007108;28;20128;-86
2024/01/07 01:37:57;;;;;;;0.20;0.10;;;;;;;;;;5009296;28;20041;-89
2024/01/07 01:40:23;;;;;;;0.20;0.00;;;;;;;;;;5024450;28;20041;-83
2024/01/07 01:42:52;;;;;;;0.20;0.10;;;;;;;;;;5002902;28;20069;-88
2024/01/07 01:45:19;;;;;;;0.30;0.20;;;;;;;;;;5007334;28;20640;-86
2024/01/07 01:47:52;;;;;;;0.20;0.20;;;;;;;;;;5020602;28;20040;-88
2024/01/07 01:50:26;;;;;;;0.20;0.10;;;;;;;;;;5020388;28;20083;-87
2024/01/07 01:52:52;;;;;;;0.28;0.17;;;;;;;;;;5006120;28;20175;-86
2024/01/07 01:55:19;;;;;;;0.20;0.10;;;;;;;;;;5003357;28;20045;-88
2024/01/07 01:57:51;;;;;;;0.20;0.10;;;;;;;;;;5002935;28;20047;-87
2024/01/07 02:00:17;;;;;;;0.20;0.10;;;;;;;;;;5007161;28;20124;-86
2024/01/07 02:02:43;;;;;;;0.20;0.10;;;;;;;;;;5024894;28;20125;-85
2024/01/07 02:05:17;;;;;;;0.20;0.10;;;;;;;;;;5007307;28;20071;-88
2024/01/07 02:08:00;;;;;;;0.20;0.10;;;;;;;;;;5036271;28;20124;-86
2024/01/07 02:10:53;;;;;;;0.20;0.10;;;;;;;;;;5011618;28;20044;-84
2024/01/07 02:13:41;;;;;;;0.25;0.25;;;;;;;;;;5021796;28;20580;-84
2024/01/07 02:16:34;;;;;;;0.20;0.10;;;;;;;;;;5023477;28;20040;-88
2024/01/07 02:19:15;;;;;;;0.20;0.10;;;;;;;;;;5014968;28;20065;-89
2024/01/07 02:21:56;;;;;;;0.20;0.10;;;;;;;;;;5013048;28;20044;-86
2024/01/07 02:24:22;;;;;;;0.20;0.20;;;;;;;;;;5012880;28;20151;-85
2024/01/07 02:26:51;;;;;;;0.20;0.10;;;;;;;;;;5012869;28;20040;-84
2024/01/07 02:29:25;;;;;;;0.20;0.10;;;;;;;;;;5014166;28;20045;-85
2024/01/07 02:32:01;;;;;;;0.20;0.10;;;;;;;;;;5011054;28;20052;-88
2024/01/07 02:34:30;;;;;;;0.20;0.20;;;;;;;;;;5011896;28;20539;-87
2024/01/07 02:36:58;;;;;;;0.20;0.10;;;;;;;;;;5011784;28;20045;-86
2024/01/07 02:39:27;;;;;;;1.67;0.40;;;;;;;;;;5025328;28;20132;-88
2024/01/07 02:41:53;;;;;;;0.30;0.20;;;;;;;;;;5026800;28;20548;-84
2024/01/07 02:47:26;;;;;;;0.20;0.10;;;;;;;;;;5030291;28;20560;-87
2024/01/07 02:49:53;;;;;;;0.20;0.03;;;;;;;;;;5006789;28;20048;-88
2024/01/07 02:52:19;;;;;;;0.20;0.10;;;;;;;;;;5011016;28;20130;-85
2024/01/07 02:54:53;;;;;;;0.20;0.10;;;;;;;;;;5012637;28;20048;-87
2024/01/07 02:57:19;;;;;;;0.20;0.00;;;;;;;;;;5029597;28;20069;-84
2024/01/07 02:59:54;;;;;;;0.20;0.10;;;;;;;;;;5004638;28;20585;-85
2024/01/07 03:02:32;;;;;;;0.20;0.10;;;;;;;;;;5027967;28;20830;-85
2024/01/07 03:05:03;;;;;;;0.20;0.00;;;;;;;;;;5027985;28;20079;-84
2024/01/07 03:07:29;;;;;;;0.20;0.00;;;;;;;;;;5034972;28;20529;-86
2024/01/07 03:09:58;;;;;;;0.20;0.10;;;;;;;;;;5006650;28;20246;-86
2024/01/07 03:12:24;;;;;;;0.20;0.10;;;;;;;;;;5023169;28;20052;-84
2024/01/07 03:14:50;;;;;;;0.20;0.10;;;;;;;;;;5023727;28;20033;-85
2024/01/07 03:17:17;;;;;;;0.20;0.10;;;;;;;;;;5025490;28;20044;-85
2024/01/07 03:19:43;;;;;;;0.20;0.05;;;;;;;;;;5030787;28;20092;-86
2024/01/07 03:22:09;;;;;;;0.20;0.10;;;;;;;;;;5020406;28;20071;-85
2024/01/07 03:24:35;;;;;;;0.20;0.00;;;;;;;;;;5003407;28;20124;-85
2024/01/07 03:27:01;;;;;;;0.20;0.10;;;;;;;;;;5008193;28;20091;-89
2024/01/07 03:29:27;;;;;;;0.20;0.10;;;;;;;;;;5006584;28;20057;-86
2024/01/07 03:32:00;;;;;;;0.20;0.10;;;;;;;;;;5006057;28;20048;-84
2024/01/07 03:34:26;;;;;;;0.20;0.10;;;;;;;;;;5006097;28;20037;-83
2024/01/07 03:36:52;;;;;;;0.40;0.30;;;;;;;;;;4962740;23;20058;-82
2024/01/07 03:39:18;;;;;;;0.20;0.10;;;;;;;;;;4909529;28;20127;-82
2024/01/07 03:41:44;;;;;;;0.20;0.10;;;;;;;;;;4985234;28;20126;-82
2024/01/07 03:44:10;;;;;;;0.20;0.10;;;;;;;;;;4921307;28;20472;-80
2024/01/07 03:46:36;;;;;;;0.20;0.10;;;;;;;;;;4998776;28;20042;-84
2024/01/07 03:49:03;;;;;;;0.20;0.10;;;;;;;;;;4998676;28;20048;-82
2024/01/07 03:51:29;;;;;;;1.40;1.30;;;;;;;;;;4989834;28;20069;-82
2024/01/07 03:53:55;;;;;;;0.20;0.00;;;;;;;;;;4987409;28;20132;-82
2024/01/07 03:56:21;;;;;;;0.20;0.05;;;;;;;;;;5004978;28;20128;-83
2024/01/07 03:58:47;;;;;;;0.20;0.10;;;;;;;;;;5006779;28;20041;-82
2024/01/07 04:01:16;;;;;;;0.20;0.10;;;;;;;;;;4987751;28;20034;-83
2024/01/07 04:03:42;;;;;;;0.20;0.10;;;;;;;;;;4997217;28;20045;-82
2024/01/07 04:06:08;;;;;;;0.20;0.00;;;;;;;;;;4986109;28;20048;-82
2024/01/07 04:08:35;;;;;;;0.20;0.05;;;;;;;;;;4982504;28;20044;-81
2024/01/07 04:11:02;;;;;;;0.20;0.10;;;;;;;;;;5011033;28;20079;-82
2024/01/07 04:13:28;;;;;;;0.20;0.10;;;;;;;;;;4998564;28;20132;-81
2024/01/07 04:15:54;;;;;;;0.20;0.10;;;;;;;;;;4996693;28;20033;-82
2024/01/07 04:18:20;;;;;;;0.20;0.05;;;;;;;;;;4979001;28;20046;-82
2024/01/07 04:20:46;;;;;;;0.20;0.00;;;;;;;;;;5006451;28;20049;-82
2024/01/07 04:23:12;;;;;;;0.20;0.10;;;;;;;;;;4997187;28;20057;-82
2024/01/07 04:25:40;;;;;;;0.20;0.10;;;;;;;;;;4986058;28;20072;-82
2024/01/07 04:28:06;;;;;;;0.20;0.10;;;;;;;;;;5015997;28;20048;-83
2024/01/07 04:30:32;;;;;;;0.20;0.10;;;;;;;;;;4984960;28;20098;-80
2024/01/07 04:32:59;;;;;;;0.20;0.10;;;;;;;;;;5003567;28;20041;-82
2024/01/07 04:35:25;;;;;;;0.20;0.10;;;;;;;;;;4981949;28;20038;-83
2024/01/07 04:37:51;;;;;;;0.20;0.10;;;;;;;;;;5008977;28;20049;-82
2024/01/07 04:40:17;;;;;;;0.20;0.03;;;;;;;;;;4981349;28;20037;-83
2024/01/07 04:42:43;;;;;;;0.20;0.10;;;;;;;;;;5014687;28;20033;-82
2024/01/07 04:45:09;;;;;;;0.40;0.32;;;;;;;;;;4987606;28;20133;-85
2024/01/07 04:47:35;;;;;;;0.22;0.05;;;;;;;;;;5005056;28;20068;-85
2024/01/07 04:50:01;;;;;;;0.20;0.13;;;;;;;;;;5004389;28;20041;-82
2024/01/07 04:52:27;;;;;;;0.20;0.10;;;;;;;;;;4987935;28;20045;-82
2024/01/07 04:54:55;;;;;;;0.20;0.00;;;;;;;;;;5021471;28;20038;-83
2024/01/07 04:57:21;;;;;;;0.20;0.10;;;;;;;;;;5016104;28;20068;-84
2024/01/07 04:59:51;;;;;;;0.40;0.35;;;;;;;;;;4987841;28;20046;-83
2024/01/07 05:02:17;;;;;;;1.27;0.50;;;;;;;;;;4988999;28;20041;-82
2024/01/07 05:04:43;;;;;;;0.20;0.10;;;;;;;;;;5006617;28;20071;-83
2024/01/07 05:07:09;;;;;;;0.20;0.03;;;;;;;;;;5015983;28;20042;-82
2024/01/07 05:09:38;;;;;;;0.20;0.10;;;;;;;;;;4987871;28;20053;-85
2024/01/07 05:12:04;;;;;;;0.20;0.03;;;;;;;;;;4997016;28;20049;-81
2024/01/07 05:14:30;;;;;;;0.20;0.10;;;;;;;;;;4985303;28;20176;-81
2024/01/07 05:16:56;;;;;;;0.20;0.10;;;;;;;;;;4998390;28;20060;-83
2024/01/07 05:19:22;;;;;;;0.20;0.10;;;;;;;;;;4981677;28;20149;-81
2024/01/07 05:21:48;;;;;;;0.20;0.00;;;;;;;;;;4997961;28;21272;-81
2024/01/07 05:24:17;;;;;;;0.20;0.10;;;;;;;;;;4998539;28;20050;-85
2024/01/07 05:26:44;;;;;;;0.20;0.10;;;;;;;;;;5002607;28;20152;-81
2024/01/07 05:29:10;;;;;;;0.20;0.10;;;;;;;;;;5000033;28;20049;-82
2024/01/07 05:31:36;;;;;;;0.20;0.10;;;;;;;;;;5016557;28;20041;-82
2024/01/07 05:34:02;;;;;;;0.20;0.00;;;;;;;;;;4991170;28;20180;-83
2024/01/07 05:36:28;;;;;;;0.20;0.20;;;;;;;;;;4995887;28;20074;-81
2024/01/07 05:38:54;;;;;;;0.20;0.10;;;;;;;;;;4986413;28;20041;-81
2024/01/07 05:41:20;;;;;;;0.20;0.00;;;;;;;;;;5002430;28;20565;-81
2024/01/07 05:43:46;;;;;;;0.20;0.10;;;;;;;;;;4984771;28;20165;-83
2024/01/07 05:46:12;;;;;;;0.20;0.00;;;;;;;;;;4994788;28;20125;-82
2024/01/07 05:48:43;;;;;;;0.20;0.10;;;;;;;;;;4994208;28;20167;-81
2024/01/07 05:51:09;;;;;;;0.20;0.10;;;;;;;;;;4987583;28;20045;-86
2024/01/07 05:53:35;;;;;;;0.20;0.10;;;;;;;;;;4988760;28;20077;-85
2024/01/07 05:56:02;;;;;;;0.20;0.10;;;;;;;;;;4981658;28;20033;-82
2024/01/07 05:58:28;;;;;;;0.20;0.10;;;;;;;;;;5001864;28;20085;-81
2024/01/07 06:00:54;;;;;;;0.20;0.10;;;;;;;;;;4996458;28;21323;-82
2024/01/07 06:03:20;;;;;;;0.20;0.00;;;;;;;;;;5000834;28;20038;-89
2024/01/07 06:05:46;;;;;;;0.20;0.10;;;;;;;;;;4981542;28;20088;-82
2024/01/07 06:08:13;;;;;;;0.20;0.10;;;;;;;;;;4998883;28;20066;-83
2024/01/07 06:10:39;;;;;;;0.20;0.10;;;;;;;;;;4996201;28;20097;-83
2024/01/07 06:13:05;;;;;;;0.20;0.10;;;;;;;;;;4998056;28;20050;-82
2024/01/07 06:15:31;;;;;;;0.20;0.10;;;;;;;;;;4995222;28;20503;-82
2024/01/07 06:17:57;;;;;;;0.20;0.00;;;;;;;;;;4994448;28;20059;-81
2024/01/07 06:20:24;;;;;;;0.20;0.10;;;;;;;;;;4991225;28;20038;-82
2024/01/07 06:22:50;;;;;;;0.20;0.10;;;;;;;;;;5008361;28;20069;-87
2024/01/07 06:25:22;;;;;;;0.20;0.10;;;;;;;;;;4987410;28;20047;-84
2024/01/07 06:27:54;;;;;;;0.20;0.00;;;;;;;;;;5008187;28;20881;-82
2024/01/07 06:30:23;;;;;;;0.20;0.10;;;;;;;;;;5002350;28;20049;-83
2024/01/07 06:32:49;;;;;;;0.20;0.10;;;;;;;;;;4989735;28;20448;-84
2024/01/07 06:35:19;;;;;;;0.20;0.10;;;;;;;;;;5008888;28;20046;-84
2024/01/07 06:37:45;;;;;;;0.20;0.10;;;;;;;;;;4998473;28;20050;-83
2024/01/07 06:40:11;;;;;;;0.65;0.45;;;;;;;;;;4996884;28;21510;-82
2024/01/07 06:42:41;;;;;;;0.73;0.30;;;;;;;;;;5000050;28;20068;-84
2024/01/07 06:45:19;;;;;;;0.20;0.10;;;;;;;;;;5012982;28;20132;-82
2024/01/07 06:47:48;;;;;;;0.20;0.10;;;;;;;;;;5003720;28;20117;-83
2024/01/07 06:50:14;;;;;;;0.20;0.10;;;;;;;;;;4992535;28;20517;-83
2024/01/07 06:52:42;;;;;;;0.20;0.10;;;;;;;;;;5008556;28;20063;-87
2024/01/07 06:55:09;;;;;;;0.20;0.10;;;;;;;;;;4978291;28;20084;-82
2024/01/07 06:57:37;;;;;;;0.20;0.10;;;;;;;;;;4996083;28;20045;-85
2024/01/07 07:00:07;;;;;;;0.20;0.10;;;;;;;;;;5015627;28;20042;-84
2024/01/07 07:02:47;;;;;;;0.20;0.10;;;;;;;;;;5005392;28;20509;-85
2024/01/07 07:05:16;;;;;;;0.20;0.10;;;;;;;;;;4990489;28;20037;-83
2024/01/07 07:07:45;;;;;;;0.20;0.10;;;;;;;;;;5007758;28;20517;-84
2024/01/07 07:10:17;;;;;;;0.20;0.10;;;;;;;;;;4991494;28;20048;-84
2024/01/07 07:12:43;;;;;;;0.20;0.10;;;;;;;;;;4986296;28;20118;-83
2024/01/07 07:15:15;;;;;;;0.20;0.10;;;;;;;;;;5002916;28;20041;-85
2024/01/07 07:17:41;;;;;;;0.20;0.10;;;;;;;;;;4995846;28;20069;-83
2024/01/07 07:20:12;;;;;;;0.20;0.10;;;;;;;;;;4983987;28;20137;-86
2024/01/07 07:22:38;;;;;;;0.20;0.10;;;;;;;;;;4990976;28;20142;-85
2024/01/07 07:25:10;;;;;;;0.20;0.10;;;;;;;;;;4985238;28;20052;-85
2024/01/07 07:27:39;;;;;;;0.20;0.10;;;;;;;;;;5003366;28;20124;-87
2024/01/07 07:30:06;;;;;;;0.20;0.10;;;;;;;;;;4999015;28;20132;-83
2024/01/07 07:32:32;;;;;;;0.20;0.10;;;;;;;;;;4982226;28;20048;-86
2024/01/07 07:34:58;;;;;;;0.20;0.10;;;;;;;;;;5012294;28;20029;-83
2024/01/07 07:37:25;;;;;;;0.55;0.20;;;;;;;;;;4982368;28;20096;-83
2024/01/07 07:39:51;;;;;;;0.20;0.10;;;;;;;;;;4988683;28;20132;-85
2024/01/07 07:42:17;;;;;;;0.70;0.70;;;;;;;;;;5001242;28;20485;-85
2024/01/07 07:44:43;;;;;;;0.20;0.10;;;;;;;;;;4990856;28;20037;-86
2024/01/07 07:47:11;;;;;;;0.20;0.10;;;;;;;;;;5015202;28;20034;-86
2024/01/07 07:49:40;;;;;;;0.20;0.10;;;;;;;;;;5022029;28;20045;-83
2024/01/07 07:52:06;;;;;;;0.20;0.10;;;;;;;;;;4993634;28;20132;-84
2024/01/07 07:54:32;;;;;;;0.20;0.10;;;;;;;;;;4993126;28;20045;-84
2024/01/07 07:56:58;;;;;;;0.20;0.10;;;;;;;;;;5007514;28;20045;-86
2024/01/07 07:59:24;;;;;;;0.20;0.10;;;;;;;;;;5003697;28;20596;-85
2024/01/07 08:01:50;;;;;;;0.20;0.10;;;;;;;;;;4988218;28;20132;-85
2024/01/07 08:04:16;;;;;;;0.20;0.10;;;;;;;;;;5008483;28;20527;-83
2024/01/07 08:06:47;;;;;;;0.20;0.10;;;;;;;;;;4984683;28;20085;-85
2024/01/07 08:09:13;;;;;;;0.20;0.10;;;;;;;;;;5016689;28;20057;-85
2024/01/07 08:11:42;;;;;;;0.20;0.10;;;;;;;;;;5001609;28;20042;-85
2024/01/07 08:14:11;;;;;;;0.20;0.00;;;;;;;;;;4991272;28;20191;-83
2024/01/07 08:16:40;;;;;;;0.20;0.10;;;;;;;;;;5005964;28;20045;-82
2024/01/07 08:19:12;;;;;;;0.20;0.10;;;;;;;;;;5005065;28;20112;-86
2024/01/07 08:21:43;;;;;;;0.20;0.10;;;;;;;;;;5004953;28;20402;-85
2024/01/07 08:24:12;;;;;;;0.20;0.10;;;;;;;;;;5005269;28;20073;-85
2024/01/07 08:27:06;;;;;;;0.20;0.20;;;;;;;;;;5002890;28;20049;-83
2024/01/07 08:29:35;;;;;;;0.20;0.10;;;;;;;;;;5007698;28;20049;-86
2024/01/07 08:32:04;;;;;;;0.20;0.10;;;;;;;;;;5016455;28;20557;-84
2024/01/07 08:34:33;;;;;;;0.20;0.10;;;;;;;;;;5001998;28;20478;-83
2024/01/07 08:37:11;;;;;;;0.20;0.10;;;;;;;;;;4991960;28;20816;-84
2024/01/07 08:39:49;;;;;;;0.20;0.10;;;;;;;;;;5002901;28;20045;-84
2024/01/07 08:42:24;;;;;;;0.20;0.10;;;;;;;;;;5002345;28;20073;-85
2024/01/07 08:44:53;;;;;;;0.20;0.10;;;;;;;;;;5016794;28;20053;-84
2024/01/07 08:47:28;;;;;;;0.20;0.10;;;;;;;;;;4982708;28;20149;-84
2024/01/07 08:52:52;;;;;;;0.20;0.10;;;;;;;;;;4989267;28;20151;-84
2024/01/07 08:55:30;;;;;;;0.45;0.45;;;;;;;;;;4987509;28;20033;-85
2024/01/07 08:57:59;;;;;;;0.20;0.10;;;;;;;;;;5006622;28;20095;-85
2024/01/07 09:00:32;;;;;;;0.20;0.10;;;;;;;;;;4991228;28;20048;-84
2024/01/07 09:03:15;;;;;;;0.20;0.10;;;;;;;;;;4990311;28;20068;-85
2024/01/07 09:08:44;;;;;;;0.20;0.10;;;;;;;;;;5002079;28;20049;-85
2024/01/07 09:11:21;;;;;;;0.20;0.10;;;;;;;;;;5001605;28;20060;-86
2024/01/07 09:14:17;;;;;;;0.20;0.10;;;;;;;;;;5018490;28;20086;-85
2024/01/07 09:19:47;;;;;;;0.20;0.10;;;;;;;;;;5001200;28;20042;-87
2024/01/07 09:22:26;;;;;;;0.20;0.08;;;;;;;;;;5004834;28;20049;-85
2024/01/07 09:25:07;;;;;;;0.20;0.10;;;;;;;;;;5006470;28;20493;-83
2024/01/07 09:27:39;;;;;;;0.20;0.10;;;;;;;;;;5009197;28;20045;-85
2024/01/07 09:30:05;;;;;;;0.20;0.15;;;;;;;;;;4993385;28;20052;-83
2024/01/07 09:32:43;;;;;;;0.20;0.00;;;;;;;;;;5026957;28;20057;-85
2024/01/07 09:35:12;;;;;;;0.20;0.10;;;;;;;;;;5005798;28;20509;-84
2024/01/07 09:37:38;;;;;;;0.20;0.10;;;;;;;;;;5018596;23;20061;-84
2024/01/07 09:40:06;;;;;;;0.20;0.10;;;;;;;;;;4990566;28;20076;-83
2024/01/07 09:42:32;;;;;;;0.20;0.10;;;;;;;;;;5016579;28;20049;-80
2024/01/07 09:44:58;;;;;;;0.20;0.10;;;;;;;;;;5027298;28;20037;-82
2024/01/07 09:47:24;;;;;;;0.20;0.10;;;;;;;;;;5011815;28;20504;-85
2024/01/07 09:49:52;;;;;;;0.20;0.10;;;;;;;;;;4992716;28;20132;-83
2024/01/07 09:52:28;;;;;;;0.20;0.10;;;;;;;;;;4989760;28;20084;-82
2024/01/07 09:54:54;;;;;;;;;;;;;;;;;;4992902;28;20046;-83
2024/01/07 09:57:20;;;;;;;0.20;0.10;;;;;;;;;;5011279;28;19921;-84
2024/01/07 09:59:47;;;;;;;0.22;0.15;;;;;;;;;;5023274;28;20107;-84
2024/01/07 10:02:13;;;;;;;0.20;0.10;;;;;;;;;;4995619;28;20052;-82
2024/01/07 10:04:43;;;;;;;0.20;0.10;;;;;;;;;;4992317;28;20042;-84
2024/01/07 10:07:09;;;;;;;0.20;0.10;;;;;;;;;;5018852;28;20096;-83
2024/01/07 10:09:35;;;;;;;0.20;0.10;;;;;;;;;;4997558;28;20073;-87
2024/01/07 10:12:02;;;;;;;0.20;0.00;;;;;;;;;;5013177;28;20041;-82
2024/01/07 10:14:29;;;;;;;0.20;0.10;;;;;;;;;;4997401;28;20041;-86
2024/01/07 10:16:55;;;;;;;0.20;0.10;;;;;;;;;;4992456;28;20037;-86
2024/01/07 10:19:22;;;;;;;0.20;0.10;;;;;;;;;;5013828;28;20045;-81
2024/01/07 10:22:09;;;;;;;0.20;0.10;;;;;;;;;;5009218;28;20033;-82
2024/01/07 10:24:39;;;;;;;0.20;0.10;;;;;;;;;;4999526;28;20030;-86
2024/01/07 10:27:09;;;;;;;0.20;0.10;;;;;;;;;;4996573;28;20037;-84
2024/01/07 10:29:39;;;;;;;0.20;0.10;;;;;;;;;;4992173;28;20116;-87
2024/01/07 10:32:19;;;;;;;0.20;0.00;;;;;;;;;;4996201;28;20041;-85
2024/01/07 10:34:49;;;;;;;0.20;0.10;;;;;;;;;;5023531;28;20088;-85
2024/01/07 10:37:19;;;;;;;0.20;0.00;;;;;;;;;;4991434;28;20034;-83
2024/01/07 10:39:52;;;;;;;0.20;0.10;;;;;;;;;;5004720;28;20052;-88
2024/01/07 10:42:18;;;;;;;0.20;0.10;;;;;;;;;;5008278;28;20037;-84
2024/01/07 10:44:45;;;;;;;0.20;0.10;;;;;;;;;;5012218;28;20048;-84
2024/01/07 10:47:11;;;;;;;0.20;0.10;;;;;;;;;;4987422;28;20120;-82
2024/01/07 10:49:37;;;;;;;0.20;0.10;;;;;;;;;;4987692;28;20833;-88
2024/01/07 10:52:04;;;;;;;0.20;0.10;;;;;;;;;;5008230;28;20055;-85
2024/01/07 10:54:30;;;;;;;0.20;0.10;;;;;;;;;;4984963;28;20112;-82
2024/01/07 10:57:09;;;;;;;0.20;0.10;;;;;;;;;;4991115;28;20049;-84
2024/01/07 10:59:37;;;;;;;0.20;0.10;;;;;;;;;;4989871;28;20052;-85
2024/01/07 11:02:08;;;;;;;0.20;0.10;;;;;;;;;;4992226;28;20056;-85
2024/01/07 11:04:43;;;;;;;0.20;0.10;;;;;;;;;;5012594;28;20059;-83
2024/01/07 11:07:19;;;;;;;0.20;0.10;;;;;;;;;;5023589;28;20053;-88
2024/01/07 11:09:48;;;;;;;0.20;0.10;;;;;;;;;;4995763;28;20045;-83
2024/01/07 11:12:14;;;;;;;0.20;0.10;;;;;;;;;;4991384;28;20052;-83
2024/01/07 11:14:52;;;;;;;0.20;0.10;;;;;;;;;;5005500;28;20120;-82
2024/01/07 11:17:42;;;;;;;0.20;0.10;;;;;;;;;;5008135;28;20056;-83
2024/01/07 11:20:26;;;;;;;0.20;0.10;;;;;;;;;;4987288;28;20450;-85
2024/01/07 11:23:22;;;;;;;0.20;0.10;;;;;;;;;;4993432;28;20346;-84
2024/01/07 11:25:48;;;;;;;0.20;0.10;;;;;;;;;;4991983;28;20559;-82
2024/01/07 11:28:14;;;;;;;0.20;0.10;;;;;;;;;;4987126;28;20314;-83
2024/01/07 11:30:41;;;;;;;0.20;0.10;;;;;;;;;;4990484;28;20059;-84
2024/01/07 11:33:07;;;;;;;0.20;0.10;;;;;;;;;;4984859;28;20099;-83
2024/01/07 11:35:54;;;;;;;0.20;0.10;;;;;;;;;;4987423;28;20053;-83
2024/01/07 11:38:21;;;;;;;0.20;0.15;;;;;;;;;;4991495;28;20056;-85
2024/01/07 11:40:47;;;;;;;0.20;0.10;;;;;;;;;;5006200;28;20041;-84
2024/01/07 11:43:13;;;;;;;0.20;0.00;;;;;;;;;;4990255;28;20045;-84
2024/01/07 11:45:39;;;;;;;0.20;0.10;;;;;;;;;;4989809;28;20172;-83
2024/01/07 11:48:06;;;;;;;0.20;0.10;;;;;;;;;;4985503;28;20120;-83
2024/01/07 11:50:32;;;;;;;0.20;0.03;;;;;;;;;;4989873;28;20513;-86
2024/01/07 11:52:58;;;;;;;0.20;0.10;;;;;;;;;;5007961;28;20058;-84
2024/01/07 11:55:44;;;;;;;0.20;0.10;;;;;;;;;;4991863;28;20050;-86
2024/01/07 11:58:13;;;;;;;0.20;0.10;;;;;;;;;;5012900;28;20087;-84
2024/01/07 12:00:42;;;;;;;0.20;0.10;;;;;;;;;;4990974;28;20046;-84
2024/01/07 12:03:08;;;;;;;0.85;0.60;;;;;;;;;;4988480;28;20029;-84
2024/01/07 12:05:34;;;;;;;0.20;0.10;;;;;;;;;;4989888;28;20634;-85
2024/01/07 12:08:04;;;;;;;0.20;0.10;;;;;;;;;;4991128;28;20520;-83
2024/01/07 12:10:31;;;;;;;0.20;0.10;;;;;;;;;;4987727;28;20101;-86
2024/01/07 12:12:57;;;;;;;0.95;0.68;;;;;;;;;;4993189;28;20072;-87
2024/01/07 12:15:26;;;;;;;0.20;0.10;;;;;;;;;;4988284;28;20054;-84
2024/01/07 12:18:01;;;;;;;0.20;0.10;;;;;;;;;;4986188;28;20033;-85
2024/01/07 12:20:28;;;;;;;0.20;0.10;;;;;;;;;;5004086;28;20037;-86
2024/01/07 12:23:13;;;;;;;0.20;0.10;;;;;;;;;;4993427;28;20049;-87
2024/01/07 12:25:39;;;;;;;2.05;0.75;;;;;;;;;;5005420;28;20042;-87
2024/01/07 12:28:10;;;;;;;0.20;0.20;;;;;;;;;;4997560;28;20096;-84
2024/01/07 12:30:38;;;;;;;0.20;0.10;;;;;;;;;;5009040;28;20040;-87
2024/01/07 12:33:05;;;;;;;0.20;0.10;;;;;;;;;;4991219;28;20561;-84
2024/01/07 12:35:35;;;;;;;0.20;0.10;;;;;;;;;;4995598;28;20056;-89
2024/01/07 12:38:16;;;;;;;0.20;0.10;;;;;;;;;;5007653;28;20419;-87
2024/01/07 12:40:52;;;;;;;0.20;0.10;;;;;;;;;;5004313;28;20092;-87
2024/01/07 12:43:22;;;;;;;0.20;0.10;;;;;;;;;;5004262;28;20052;-85
2024/01/07 12:45:51;;;;;;;0.20;0.10;;;;;;;;;;4992390;28;20041;-85
2024/01/07 12:48:23;;;;;;;0.20;0.10;;;;;;;;;;4991059;28;20632;-82
2024/01/07 12:50:49;;;;;;;0.20;0.10;;;;;;;;;;5003486;28;20129;-87
2024/01/07 12:53:24;;;;;;;0.20;0.10;;;;;;;;;;4990709;28;20072;-86
2024/01/07 12:55:50;;;;;;;0.20;0.10;;;;;;;;;;4986814;28;20041;-85
2024/01/07 12:58:20;;;;;;;0.20;0.10;;;;;;;;;;4985383;28;20790;-85
2024/01/07 13:00:58;;;;;;;0.20;0.10;;;;;;;;;;4983215;28;20045;-87
2024/01/07 13:03:42;;;;;;;0.20;0.10;;;;;;;;;;4987233;28;20048;-85
2024/01/07 13:06:14;;;;;;;0.20;0.10;;;;;;;;;;5002951;28;20045;-85
2024/01/07 13:08:40;;;;;;;0.30;0.30;;;;;;;;;;4988326;28;20418;-86
2024/01/07 13:11:32;;;;;;;0.20;0.10;;;;;;;;;;4985171;28;20130;-88
2024/01/07 13:14:13;;;;;;;0.20;0.10;;;;;;;;;;5009606;28;20045;-89
2024/01/07 13:16:42;;;;;;;0.20;0.10;;;;;;;;;;4982863;28;20485;-86
2024/01/07 13:19:10;;;;;;;0.20;0.10;;;;;;;;;;4987968;28;20102;-87
2024/01/07 13:21:42;;;;;;;0.20;0.10;;;;;;;;;;4990200;28;20068;-91
2024/01/07 13:24:15;;;;;;;0.20;0.10;;;;;;;;;;5003415;28;20045;-88
2024/01/07 13:26:49;;;;;;;0.20;0.10;;;;;;;;;;4987242;28;20541;-84
2024/01/07 13:29:15;;;;;;;0.20;0.10;;;;;;;;;;4987656;28;20049;-85
2024/01/07 13:31:44;;;;;;;0.22;0.20;;;;;;;;;;4983159;28;20081;-83
2024/01/07 13:37:30;;;;;;;0.30;0.28;;;;;;;;;;4998393;28;20057;-88
2024/01/07 13:40:22;;;;;;;0.20;0.10;;;;;;;;;;4998304;28;20053;-87
2024/01/07 13:42:52;;;;;;;0.20;0.10;;;;;;;;;;4989276;28;20053;-84
2024/01/07 13:45:30;;;;;;;0.20;0.10;;;;;;;;;;5021107;28;20041;-87
2024/01/07 13:48:29;;;;;;;0.20;0.10;;;;;;;;;;4999983;28;20536;-87
2024/01/07 13:51:07;;;;;;;0.20;0.10;;;;;;;;;;4990318;28;20800;-87
2024/01/07 13:53:51;;;;;;;0.20;0.10;;;;;;;;;;5016730;28;20052;-87
2024/01/07 13:56:36;;;;;;;0.20;0.00;;;;;;;;;;5003150;28;20041;-85
2024/01/07 13:59:10;;;;;;;0.20;0.00;;;;;;;;;;5001181;28;20124;-86
2024/01/07 14:01:54;;;;;;;0.20;0.00;;;;;;;;;;5004272;28;20077;-87
2024/01/07 14:04:29;;;;;;;0.45;0.30;;;;;;;;;;4993042;28;20055;-86
2024/01/07 14:10:21;;;;;;;0.65;0.38;;;;;;;;;;5000881;28;20137;-87
2024/01/07 14:12:58;;;;;;;0.20;0.10;;;;;;;;;;5004921;28;20107;-84
2024/01/07 14:15:24;;;;;;;0.20;0.10;;;;;;;;;;4993736;28;20068;-82
2024/01/07 14:17:53;;;;;;;0.20;0.00;;;;;;;;;;5014498;28;20180;-82
2024/01/07 14:20:21;;;;;;;0.20;0.10;;;;;;;;;;5001211;28;20075;-87
2024/01/07 14:22:47;;;;;;;0.20;0.00;;;;;;;;;;4996237;28;20041;-87
2024/01/07 14:25:19;;;;;;;0.20;0.10;;;;;;;;;;4994692;28;20053;-84
2024/01/07 14:27:54;;;;;;;0.20;0.10;;;;;;;;;;5008669;28;20056;-85
2024/01/07 14:30:35;;;;;;;0.20;0.10;;;;;;;;;;4993802;28;20127;-85
2024/01/07 14:33:03;;;;;;;0.20;0.10;;;;;;;;;;4991709;28;20170;-87
2024/01/07 14:35:38;;;;;;;0.30;0.20;;;;;;;;;;4992623;28;20136;-86
2024/01/07 14:41:02;;;;;;;0.20;0.10;;;;;;;;;;4942440;28;20051;-85
2024/01/07 14:43:41;;;;;;;0.20;0.10;;;;;;;;;;4922339;28;20050;-85
2024/01/07 14:46:08;;;;;;;0.20;0.10;;;;;;;;;;5005258;28;20390;-86
2024/01/07 14:48:39;;;;;;;0.20;0.00;;;;;;;;;;4896321;28;20075;-87
2024/01/07 14:51:31;;;;;;;0.20;0.00;;;;;;;;;;4917163;28;20059;-86
2024/01/07 14:53:59;;;;;;;0.20;0.10;;;;;;;;;;4993300;28;20047;-86
2024/01/07 14:56:51;;;;;;;0.85;0.85;;;;;;;;;;4899277;28;20047;-88
2024/01/07 14:59:38;;;;;;;0.20;0.10;;;;;;;;;;4900445;28;20458;-85
2024/01/07 15:02:18;;;;;;;0.20;0.10;;;;;;;;;;4921938;28;20597;-89
2024/01/07 15:04:45;;;;;;;0.20;0.00;;;;;;;;;;4898273;28;20130;-87
2024/01/07 15:07:11;;;;;;;0.20;0.10;;;;;;;;;;4985764;28;20039;-88
2024/01/07 15:09:48;;;;;;;0.20;0.10;;;;;;;;;;4917213;28;20043;-86
2024/01/07 15:12:23;;;;;;;0.20;0.10;;;;;;;;;;4903667;28;20423;-87
2024/01/07 15:14:57;;;;;;;0.20;0.10;;;;;;;;;;4897664;28;20055;-87
2024/01/07 15:17:24;;;;;;;0.85;0.52;;;;;;;;;;4907681;28;20072;-88
2024/01/07 15:19:53;;;;;;;0.20;0.10;;;;;;;;;;4908814;28;20048;-88
2024/01/07 15:22:19;;;;;;;0.20;0.10;;;;;;;;;;4909131;28;20046;-85
2024/01/07 15:24:48;;;;;;;0.20;0.10;;;;;;;;;;4914792;28;20040;-87
2024/01/07 15:27:14;;;;;;;0.32;0.32;;;;;;;;;;4896985;28;20043;-87